Anshun, Guizhou

7:37 AM CST on September 23, 2014 (GMT +0800)
Guiyang | Change Station
CLOSE
Current Station
Airport
Location: Guiyang,
Elevation: 3734 ft
Nearby Weather Stations

Elev 3734 ft 26.54 °N, 106.80 °E | Updated 37 minutes ago

Mist
Mist
52 °F
Feels Like 52 °F
N
2
Wind Variable Wind from SSE

Today
High -- | Low -- °F
--% Chance of Precip.
Yesterday
High -- | Low -- °F
Precip. -- in
6:44 AM 6:51 PM
Waning Crescent, 2% visible
Pressure 30.04 in
Visibility 2.2 miles
Clouds
Dew Point 52 °F
Humidity 100%
Rainfall 0.00 in
Snow Depth Not available.
UV Not available.
Pollen Not available.
Air Quality Not available.
Flu Activity Not available.
METAR ZUGY 222300Z 16001MPS 3500 BR NSC 11/11 Q1017 NOSIG

More Conditions Fewer Conditions

Pressure 30.04 in
Visibility 2.2 miles
Clouds
Dew Point 52 °F
Humidity 100%
Rainfall 0.00 in
Snow Depth Not available.
UV Not available.
Pollen Not available.
Air Quality Not available.
Flu Activity Not available.
METAR ZUGY 222300Z 16001MPS 3500 BR NSC 11/11 Q1017 NOSIG

More Conditions Fewer Conditions

10-Day Weather Forecast

Almanac

Astronomy

Sep. 23, 2014 Rise Set
Actual Time 6:44 AM CST 6:51 PM CST
Civil Twilight 6:21 AM CST 7:15 PM CST
Nautical Twilight 5:54 AM CST 7:41 PM CST
Astronomical Twilight 5:27 AM CST 8:08 PM CST
Moon 5:42 AM CST (9/23) 6:12 PM CST (9/23)
Length of Visible Light 12h 53m
Length of Day
12h 07m
Tomorrow will be 1m 32s shorter.
Waning Crescent, 2% of the Moon is Illuminated
Sep 22
Waning Crescent
Sep 24
New
Oct 1
First Quarter
Oct 8
Full
Oct 15
Last Quarter

Yesterday's Extremes

Country Highs Country Lows

Community

WunderPhotos

Upload Photos

1,755,548 photos uploaded!

Nearby

Snow Depth

Not available.

Earthquake Activity

City Distance Mag. Time & Date
No recent earthquake activity has been reported nearby.
Minimum magnitude displayed is 2.5.

Coastal Water Temperatures

Place Temperature
No Stations Reporting

Nearby Weather Stations